Observation data for Clarendon on 08/14/2020      Previous  Date  Next       Current Mesonet Observations  Soil Data  Daily Summary Page  Observations in Plain Language
KCES 140500Z 02009KT 28/19 A2995 RMK A01 T02810186  RH  060%=      5-min Rain = 0
KCES 140505Z 02009KT 28/19 A2995 RMK A01 T02800189  RH  061%=      5-min Rain = 0
KCES 140510Z 02008KT 28/19 A2995 RMK A01 T02780191  RH  062%=      5-min Rain = 0
KCES 140515Z 03008KT 28/19 A2995 RMK A01 T02760193  RH  064%=      5-min Rain = 0
KCES 140520Z 04007KT 27/19 A2996 RMK A01 T02740194  RH  065%=      5-min Rain = 0
KCES 140525Z 04008KT 27/20 A2995 RMK A01 T02730196  RH  066%=      5-min Rain = 0
KCES 140530Z 04007KT 27/20 A2996 RMK A01 T02710197  RH  068%=      5-min Rain = 0
KCES 140535Z 04008KT 27/20 A2995 RMK A01 T02710200  RH  069%=      5-min Rain = 0
KCES 140540Z 04008KT 27/20 A2995 RMK A01 T02700201  RH  070%=      5-min Rain = 0
KCES 140545Z 05007KT 27/20 A2995 RMK A01 T02670201  RH  071%=      5-min Rain = 0
KCES 140550Z 05006KT 27/20 A2996 RMK A01 T02650201  RH  072%=      5-min Rain = 0
KCES 140555Z 03006KT 26/20 A2996 RMK A01 T02640201  RH  072%=      5-min Rain = 0
KCES 140600Z 02006KT 26/20 A2996 RMK A01 T02590199  RH  074%=      5-min Rain = 0
KCES 140605Z 02006KT 26/20 A2995 RMK A01 T02550199  RH  076%=      5-min Rain = 0
KCES 140610Z 05006KT 25/20 A2995 RMK A01 T02540200  RH  076%=      5-min Rain = 0
KCES 140615Z 05006KT 26/20 A2995 RMK A01 T02550201  RH  077%=      5-min Rain = 0
KCES 140620Z 03004KT 26/20 A2995 RMK A01 T02560201  RH  076%=      5-min Rain = 0
KCES 140625Z 05004KT 25/20 A2995 RMK A01 T02530200  RH  077%=      5-min Rain = 0
KCES 140630Z 04003KT 25/20 A2995 RMK A01 T02520200  RH  077%=      5-min Rain = 0
KCES 140635Z 01003KT 25/20 A2996 RMK A01 T02500197  RH  077%=      5-min Rain = 0
KCES 140640Z 00006KT 25/20 A2996 RMK A01 T02450196  RH  079%=      5-min Rain = 0
KCES 140645Z 01007KT 25/20 A2996 RMK A01 T02450201  RH  081%=      5-min Rain = 0
KCES 140650Z 01007KT 25/20 A2996 RMK A01 T02500203  RH  080%=      5-min Rain = 0
KCES 140655Z 01007KT 25/20 A2996 RMK A01 T02530203  RH  078%=      5-min Rain = 0
KCES 140700Z 01008KT 25/20 A2996 RMK A01 T02540203  RH  078%=      5-min Rain = 0
KCES 140705Z 01007KT 25/20 A2996 RMK A01 T02540203  RH  078%=      5-min Rain = 0
KCES 140710Z 01007KT 25/20 A2996 RMK A01 T02530203  RH  078%=      5-min Rain = 0
KCES 140715Z 01007KT 25/20 A2996 RMK A01 T02530203  RH  079%=      5-min Rain = 0
KCES 140720Z 02006KT 25/20 A2995 RMK A01 T02510203  RH  079%=      5-min Rain = 0
KCES 140725Z 01006KT 25/20 A2995 RMK A01 T02500203  RH  080%=      5-min Rain = 0
KCES 140730Z 01005KT 25/20 A2995 RMK A01 T02470202  RH  080%=      5-min Rain = 0
KCES 140735Z 01006KT 24/20 A2995 RMK A01 T02440201  RH  082%=      5-min Rain = 0
KCES 140740Z 01007KT 24/20 A2995 RMK A01 T02430202  RH  083%=      5-min Rain = 0
KCES 140745Z 01007KT 24/20 A2995 RMK A01 T02420202  RH  083%=      5-min Rain = 0
KCES 140750Z 01006KT 24/20 A2995 RMK A01 T02420203  RH  083%=      5-min Rain = 0
KCES 140755Z 01006KT 24/20 A2995 RMK A01 T02410202  RH  084%=      5-min Rain = 0
KCES 140800Z 01006KT 24/20 A2995 RMK A01 T02400202  RH  084%=      5-min Rain = 0
KCES 140805Z 01005KT 24/20 A2995 RMK A01 T02400202  RH  084%=      5-min Rain = 0
KCES 140810Z 01005KT 24/20 A2995 RMK A01 T02370201  RH  085%=      5-min Rain = 0
KCES 140815Z 01002KT 24/20 A2995 RMK A01 T02360201  RH  085%=      5-min Rain = 0
KCES 140820Z 36003KT 23/20 A2995 RMK A01 T02330197  RH  085%=      5-min Rain = 0
KCES 140825Z 01006KT 23/20 A2995 RMK A01 T02310198  RH  087%=      5-min Rain = 0
KCES 140830Z 02005KT 23/20 A2995 RMK A01 T02310199  RH  087%=      5-min Rain = 0
KCES 140835Z 02002KT 23/20 A2995 RMK A01 T02300198  RH  087%=      5-min Rain = 0
KCES 140840Z 02003KT 23/20 A2994 RMK A01 T02300199  RH  088%=      5-min Rain = 0
KCES 140845Z 01003KT 23/20 A2994 RMK A01 T02310200  RH  088%=      5-min Rain = 0
KCES 140850Z 01003KT 23/20 A2994 RMK A01 T02290198  RH  087%=      5-min Rain = 0
KCES 140855Z 02003KT 23/20 A2994 RMK A01 T02280198  RH  088%=      5-min Rain = 0
KCES 140900Z 01002KT 23/20 A2994 RMK A01 T02250195  RH  088%=      5-min Rain = 0
KCES 140905Z 02003KT 22/19 A2995 RMK A01 T02230193  RH  088%=      5-min Rain = 0
KCES 140910Z 01003KT 22/19 A2995 RMK A01 T02230194  RH  089%=      5-min Rain = 0
KCES 140915Z 01003KT 22/20 A2994 RMK A01 T02220195  RH  089%=      5-min Rain = 0
KCES 140920Z 01003KT 22/20 A2994 RMK A01 T02220195  RH  089%=      5-min Rain = 0
KCES 140925Z 01003KT 22/19 A2994 RMK A01 T02210194  RH  089%=      5-min Rain = 0
KCES 140930Z 01004KT 22/19 A2994 RMK A01 T02200193  RH  090%=      5-min Rain = 0
KCES 140935Z 01004KT 22/19 A2994 RMK A01 T02200194  RH  090%=      5-min Rain = 0
KCES 140940Z 01003KT 22/20 A2994 RMK A01 T02210195  RH  090%=      5-min Rain = 0
KCES 140945Z 36001KT 22/20 A2994 RMK A01 T02200195  RH  090%=      5-min Rain = 0
KCES 140950Z 35002KT 22/19 A2994 RMK A01 T02200194  RH  090%=      5-min Rain = 0
KCES 140955Z 33001KT 22/19 A2994 RMK A01 T02170191  RH  090%=      5-min Rain = 0
KCES 141000Z 30001KT 22/19 A2994 RMK A01 T02160190  RH  090%=      5-min Rain = 0
KCES 141005Z 30002KT 21/19 A2994 RMK A01 T02120187  RH  090%=      5-min Rain = 0
KCES 141010Z 31004KT 21/19 A2994 RMK A01 T02140190  RH  091%=      5-min Rain = 0
KCES 141015Z 31006KT 21/19 A2994 RMK A01 T02110187  RH  091%=      5-min Rain = 0
KCES 141020Z 30006KT 21/19 A2994 RMK A01 T02140192  RH  092%=      5-min Rain = 0
KCES 141025Z 28004KT 22/19 A2994 RMK A01 T02150193  RH  092%=      5-min Rain = 0
KCES 141030Z 27003KT 21/19 A2994 RMK A01 T02140191  RH  092%=      5-min Rain = 0
KCES 141035Z 22003KT 21/19 A2995 RMK A01 T02130190  RH  092%=      5-min Rain = 0
KCES 141040Z 22004KT 21/19 A2995 RMK A01 T02120189  RH  092%=      5-min Rain = 0
KCES 141045Z 26003KT 21/19 A2995 RMK A01 T02110189  RH  092%=      5-min Rain = 0
KCES 141050Z 28003KT 21/19 A2995 RMK A01 T02120190  RH  092%=      5-min Rain = 0
KCES 141055Z 28004KT 21/19 A2995 RMK A01 T02110189  RH  092%=      5-min Rain = 0
KCES 141100Z 28004KT 21/19 A2995 RMK A01 T02110189  RH  092%=      5-min Rain = 0
KCES 141105Z 28003KT 21/19 A2995 RMK A01 T02110189  RH  092%=      5-min Rain = 0
KCES 141110Z 27002KT 21/19 A2995 RMK A01 T02110189  RH  092%=      5-min Rain = 0
KCES 141115Z 32001KT 21/19 A2995 RMK A01 T02110190  RH  093%=      5-min Rain = 0
KCES 141120Z 32002KT 21/19 A2995 RMK A01 T02110188  RH  092%=      5-min Rain = 0
KCES 141125Z 35003KT 21/18 A2995 RMK A01 T02060184  RH  092%=      5-min Rain = 0
KCES 141130Z 34003KT 21/18 A2995 RMK A01 T02050184  RH  093%=      5-min Rain = 0
KCES 141135Z 33003KT 21/19 A2995 RMK A01 T02070186  RH  093%=      5-min Rain = 0
KCES 141140Z 33003KT 21/19 A2995 RMK A01 T02080187  RH  093%=      5-min Rain = 0
KCES 141145Z 32004KT 21/19 A2995 RMK A01 T02060185  RH  093%=      5-min Rain = 0
KCES 141150Z 29002KT 21/19 A2995 RMK A01 T02050185  RH  093%=      5-min Rain = 0
KCES 141155Z 29002KT 21/19 A2995 RMK A01 T02060187  RH  093%=      5-min Rain = 0
KCES 141200Z 28002KT 21/19 A2996 RMK A01 T02090189  RH  093%=      5-min Rain = 0
KCES 141205Z 25002KT 21/19 A2996 RMK A01 T02070186  RH  093%=      5-min Rain = 0
KCES 141210Z 29001KT 21/19 A2995 RMK A01 T02070187  RH  093%=      5-min Rain = 0
KCES 141215Z 33001KT 21/19 A2995 RMK A01 T02070187  RH  093%=      5-min Rain = 0
KCES 141220Z 29001KT 21/19 A2996 RMK A01 T02070186  RH  093%=      5-min Rain = 0
KCES 141225Z 27001KT 20/18 A2996 RMK A01 T02020181  RH  093%=      5-min Rain = 0
KCES 141230Z 28002KT 20/18 A2996 RMK A01 T02000180  RH  093%=      5-min Rain = 0
KCES 141235Z 31003KT 20/18 A2996 RMK A01 T02030184  RH  094%=      5-min Rain = 0
KCES 141240Z 31002KT 21/19 A2996 RMK A01 T02070188  RH  094%=      5-min Rain = 0
KCES 141245Z 25003KT 21/19 A2996 RMK A01 T02080187  RH  093%=      5-min Rain = 0
KCES 141250Z 28003KT 21/19 A2996 RMK A01 T02090190  RH  093%=      5-min Rain = 0
KCES 141255Z 29004KT 22/20 A2997 RMK A01 T02150195  RH  094%=      5-min Rain = 0
KCES 141300Z 29007KT 22/20 A2998 RMK A01 T02180197  RH  093%=      5-min Rain = 0
KCES 141305Z 31009KT 22/20 A2998 RMK A01 T02200197  RH  092%=      5-min Rain = 0
KCES 141310Z 31006KT 22/20 A2998 RMK A01 T02220198  RH  091%=      5-min Rain = 0
KCES 141315Z 31009KT 23/20 A2998 RMK A01 T02250197  RH  090%=      5-min Rain = 0
KCES 141320Z 33008KT 23/20 A2998 RMK A01 T02260196  RH  088%=      5-min Rain = 0
KCES 141325Z 33008KT 23/20 A2997 RMK A01 T02300197  RH  087%=      5-min Rain = 0
KCES 141330Z 32009KT 23/20 A2998 RMK A01 T02340197  RH  084%=      5-min Rain = 0
KCES 141335Z 34007KT 24/20 A2997 RMK A01 T02390197  RH  082%=      5-min Rain = 0
KCES 141340Z 32006KT 24/20 A2998 RMK A01 T02440199  RH  080%=      5-min Rain = 0
KCES 141345Z 32005KT 25/20 A2997 RMK A01 T02510200  RH  078%=      5-min Rain = 0
KCES 141350Z 35007KT 26/20 A2997 RMK A01 T02560199  RH  075%=      5-min Rain = 0
KCES 141355Z 33008KT 26/20 A2997 RMK A01 T02610199  RH  073%=      5-min Rain = 0
KCES 141400Z 34009KT 27/20 A2997 RMK A01 T02670198  RH  070%=      5-min Rain = 0
KCES 141405Z 33009KT 27/20 A2997 RMK A01 T02700197  RH  068%=      5-min Rain = 0
KCES 141410Z 31006KT 27/20 A2997 RMK A01 T02730197  RH  067%=      5-min Rain = 0
KCES 141415Z 33006KT 28/20 A2997 RMK A01 T02770197  RH  065%=      5-min Rain = 0
KCES 141420Z 34006KT 28/20 A2997 RMK A01 T02780196  RH  064%=      5-min Rain = 0
KCES 141425Z 34005KT 28/20 A2997 RMK A01 T02820195  RH  063%=      5-min Rain = 0
KCES 141430Z 34005KT 29/19 A2997 RMK A01 T02870194  RH  061%=      5-min Rain = 0
KCES 141435Z 32005KT 29/19 A2997 RMK A01 T02910191  RH  058%=      5-min Rain = 0
KCES 141440Z 34006KT 29/19 A2997 RMK A01 T02930189  RH  057%=      5-min Rain = 0
KCES 141445Z 36004KT 30/19 A2997 RMK A01 T02960189  RH  056%=      5-min Rain = 0
KCES 141450Z 35003KT 30/19 A2997 RMK A01 T02990191  RH  055%=      5-min Rain = 0
KCES 141455Z 00003KT 30/19 A2997 RMK A01 T03020188  RH  053%=      5-min Rain = 0
KCES 141500Z 02005KT 30/19 A2997 RMK A01 T03040193  RH  054%=      5-min Rain = 0
KCES 141505Z 02003KT 31/19 A2997 RMK A01 T03070194  RH  054%=      5-min Rain = 0
KCES 141510Z 01003KT 31/19 A2998 RMK A01 T03100190  RH  052%=      5-min Rain = 0
KCES 141515Z 03003KT 31/19 A2998 RMK A01 T03100191  RH  052%=      5-min Rain = 0
KCES 141520Z 04003KT 31/19 A2998 RMK A01 T03130190  RH  051%=      5-min Rain = 0
KCES 141525Z 06004KT 32/19 A2998 RMK A01 T03160189  RH  049%=      5-min Rain = 0
KCES 141530Z 02003KT 32/19 A2998 RMK A01 T03180186  RH  048%=      5-min Rain = 0
KCES 141535Z 03005KT 32/18 A2998 RMK A01 T03150184  RH  048%=      5-min Rain = 0
KCES 141540Z 02006KT 31/18 A2998 RMK A01 T03130182  RH  048%=      5-min Rain = 0
KCES 141545Z 03004KT 31/18 A2998 RMK A01 T03120177  RH  047%=      5-min Rain = 0
KCES 141550Z 03004KT 32/18 A2998 RMK A01 T03160183  RH  048%=      5-min Rain = 0
KCES 141555Z 06003KT 32/18 A2998 RMK A01 T03190182  RH  046%=      5-min Rain = 0
KCES 141600Z 06004KT 32/19 A2998 RMK A01 T03170188  RH  049%=      5-min Rain = 0
KCES 141605Z 03004KT 32/19 A2998 RMK A01 T03190191  RH  049%=      5-min Rain = 0
KCES 141610Z 06003G8KT 32/19 A2998 RMK A01 T03220190  RH  048%=      5-min Rain = 0
KCES 141615Z 07003KT 32/19 A2998 RMK A01 T03240187  RH  047%=      5-min Rain = 0
KCES 141620Z 08003KT 33/18 A2998 RMK A01 T03290183  RH  044%=      5-min Rain = 0
KCES 141625Z 06003KT 33/17 A2998 RMK A01 T03320170  RH  040%=      5-min Rain = 0
KCES 141630Z 06003KT 34/17 A2998 RMK A01 T03380170  RH  039%=      5-min Rain = 0
KCES 141635Z 08004KT 34/17 A2998 RMK A01 T03390165  RH  037%=      5-min Rain = 0
KCES 141640Z 07005KT 34/17 A2998 RMK A01 T03420165  RH  036%=      5-min Rain = 0
KCES 141645Z 06004KT 35/17 A2998 RMK A01 T03460165  RH  036%=      5-min Rain = 0
KCES 141650Z 07004KT 35/17 A2998 RMK A01 T03470171  RH  037%=      5-min Rain = 0
KCES 141655Z 09003KT 35/18 A2998 RMK A01 T03470176  RH  038%=      5-min Rain = 0
KCES 141700Z 08004KT 35/17 A2998 RMK A01 T03480167  RH  036%=      5-min Rain = 0
KCES 141705Z 09003KT 35/16 A2998 RMK A01 T03500163  RH  035%=      5-min Rain = 0
KCES 141710Z 11004KT 36/16 A2998 RMK A01 T03560164  RH  034%=      5-min Rain = 0
KCES 141715Z 11004KT 36/17 A2998 RMK A01 T03560166  RH  034%=      5-min Rain = 0
KCES 141720Z 11006KT 36/17 A2998 RMK A01 T03560169  RH  035%=      5-min Rain = 0
KCES 141725Z 13004KT 35/17 A2998 RMK A01 T03530166  RH  035%=      5-min Rain = 0
KCES 141730Z 10005KT 36/17 A2998 RMK A01 T03600167  RH  034%=      5-min Rain = 0
KCES 141735Z 12006KT 36/16 A2998 RMK A01 T03620162  RH  032%=      5-min Rain = 0
KCES 141740Z 11006KT 36/16 A2998 RMK A01 T03610160  RH  032%=      5-min Rain = 0
KCES 141745Z 14006KT 36/16 A2998 RMK A01 T03600161  RH  032%=      5-min Rain = 0
KCES 141750Z 16005KT 36/16 A2998 RMK A01 T03620161  RH  032%=      5-min Rain = 0
KCES 141755Z 13007KT 37/16 A2998 RMK A01 T03660160  RH  031%=      5-min Rain = 0
KCES 141800Z 12006KT 37/16 A2998 RMK A01 T03670161  RH  031%=      5-min Rain = 0
KCES 141805Z 10007KT 37/16 A2997 RMK A01 T03670160  RH  031%=      5-min Rain = 0
KCES 141810Z 10007KT 37/16 A2997 RMK A01 T03690158  RH  030%=      5-min Rain = 0
KCES 141815Z 10006G14KT 37/16 A2997 RMK A01 T03680157  RH  030%=      5-min Rain = 0
KCES 141820Z 09005G10KT 37/15 A2997 RMK A01 T03690154  RH  029%=      5-min Rain = 0
KCES 141825Z 11005G10KT 37/16 A2997 RMK A01 T03710155  RH  029%=      5-min Rain = 0
KCES 141830Z 09007G12KT 37/15 A2997 RMK A01 T03730152  RH  028%=      5-min Rain = 0
KCES 141835Z 09005G10KT 37/15 A2997 RMK A01 T03710149  RH  028%=      5-min Rain = 0
KCES 141840Z 11005G17KT 38/15 A2997 RMK A01 T03750152  RH  028%=      5-min Rain = 0
KCES 141845Z 11007KT 38/15 A2997 RMK A01 T03790153  RH  027%=      5-min Rain = 0
KCES 141850Z 10005KT 38/15 A2997 RMK A01 T03760147  RH  027%=      5-min Rain = 0
KCES 141855Z 08004G9KT 38/14 A2996 RMK A01 T03760144  RH  026%=      5-min Rain = 0
KCES 141900Z 13007KT 38/14 A2996 RMK A01 T03790139  RH  025%=      5-min Rain = 0
KCES 141905Z 15005KT 38/14 A2996 RMK A01 T03820137  RH  024%=      5-min Rain = 0
KCES 141910Z 18004KT 38/13 A2996 RMK A01 T03840131  RH  023%=      5-min Rain = 0
KCES 141915Z 14007KT 39/13 A2996 RMK A01 T03870132  RH  023%=      5-min Rain = 0
KCES 141920Z 15006KT 39/13 A2996 RMK A01 T03850128  RH  023%=      5-min Rain = 0
KCES 141925Z 16005KT 39/12 A2995 RMK A01 T03850117  RH  021%=      5-min Rain = 0
KCES 141930Z 11004KT 39/12 A2995 RMK A01 T03880124  RH  022%=      5-min Rain = 0
KCES 141935Z 14003G9KT 39/12 A2995 RMK A01 T03890118  RH  021%=      5-min Rain = 0
KCES 141940Z 12009KT 39/13 A2995 RMK A01 T03940133  RH  022%=      5-min Rain = 0
KCES 141945Z 13010G15KT 39/13 A2994 RMK A01 T03910134  RH  023%=      5-min Rain = 0
KCES 141950Z 10011KT 39/14 A2994 RMK A01 T03880135  RH  023%=      5-min Rain = 0
KCES 141955Z 11006G11KT 39/14 A2994 RMK A01 T03880137  RH  024%=      5-min Rain = 0
KCES 142000Z 10011G17KT 39/14 A2993 RMK A01 T03870137  RH  024%=      5-min Rain = 0
KCES 142005Z 09009G14KT 39/13 A2994 RMK A01 T03850134  RH  024%=      5-min Rain = 0
KCES 142010Z 07009G14KT 39/13 A2994 RMK A01 T03900130  RH  022%=      5-min Rain = 0
KCES 142015Z 10009KT 39/13 A2993 RMK A01 T03920130  RH  022%=      5-min Rain = 0
KCES 142020Z 12010KT 40/13 A2992 RMK A01 T03950130  RH  022%=      5-min Rain = 0
KCES 142025Z 13009KT 38/13 A2992 RMK A01 T03840127  RH  023%=      5-min Rain = 0
KCES 142030Z 12010KT 38/13 A2993 RMK A01 T03760128  RH  024%=      5-min Rain = 0
KCES 142035Z 10009G14KT 37/13 A2994 RMK A01 T03730129  RH  024%=      5-min Rain = 0
KCES 142040Z 10008G14KT 37/13 A2994 RMK A01 T03720129  RH  024%=      5-min Rain = 0
KCES 142045Z 11011KT 37/13 A2993 RMK A01 T03700127  RH  024%=      5-min Rain = 0
KCES 142050Z 11012KT 37/12 A2992 RMK A01 T03680123  RH  024%=      5-min Rain = 0
KCES 142055Z 11012KT 37/12 A2992 RMK A01 T03670122  RH  024%=      5-min Rain = 0
KCES 142100Z 11010KT 37/12 A2992 RMK A01 T03650122  RH  024%=      5-min Rain = 0
KCES 142105Z 11011KT 36/12 A2992 RMK A01 T03640121  RH  024%=      5-min Rain = 0
KCES 142110Z 12011KT 36/13 A2991 RMK A01 T03620125  RH  025%=      5-min Rain = 0
KCES 142115Z 11010KT 36/13 A2991 RMK A01 T03600129  RH  026%=      5-min Rain = 0
KCES 142120Z 11010KT 36/13 A2992 RMK A01 T03580133  RH  027%=      5-min Rain = 0
KCES 142125Z 11008KT 36/13 A2993 RMK A01 T03560134  RH  028%=      5-min Rain = 0
KCES 142130Z 11012KT 36/14 A2992 RMK A01 T03550136  RH  028%=      5-min Rain = 0
KCES 142135Z 10009G15KT 35/14 A2993 RMK A01 T03540138  RH  029%=      5-min Rain = 0
KCES 142140Z 11007G12KT 35/14 A2993 RMK A01 T03520141  RH  030%=      5-min Rain = 0
KCES 142145Z 12006KT 35/14 A2994 RMK A01 T03490142  RH  030%=      5-min Rain = 0
KCES 142150Z 12008KT 35/14 A2994 RMK A01 T03470143  RH  031%=      5-min Rain = 0
KCES 142155Z 14006KT 35/14 A2994 RMK A01 T03450144  RH  031%=      5-min Rain = 0
KCES 142200Z 20005KT 34/15 A2994 RMK A01 T03420146  RH  032%=      5-min Rain = 0
KCES 142205Z 27006KT 34/15 A2994 RMK A01 T03400146  RH  033%=      5-min Rain = 0
KCES 142210Z 28005KT 34/15 A2995 RMK A01 T03370148  RH  034%=      5-min Rain = 0
KCES 142215Z 29003KT 34/15 A2995 RMK A01 T03360149  RH  034%=      5-min Rain = 0
KCES 142220Z 17002KT 34/15 A2995 RMK A01 T03350148  RH  034%=      5-min Rain = 0
KCES 142225Z 34005G12KT 33/16 A2995 RMK A01 T03300164  RH  039%=      5-min Rain = 0
KCES 142230Z 34008KT 31/18 A2995 RMK A01 T03110178  RH  047%=      5-min Rain = 0
KCES 142235Z 33008G13KT 31/18 A2994 RMK A01 T03060177  RH  049%=      5-min Rain = 0
KCES 142240Z 34005KT 30/18 A2994 RMK A01 T03040177  RH  049%=      5-min Rain = 0
KCES 142245Z 34009KT 30/18 A2995 RMK A01 T03000176  RH  050%=      5-min Rain = 0
KCES 142250Z 32009KT 29/17 A2995 RMK A01 T02930173  RH  051%=      5-min Rain = 0
KCES 142255Z 29006KT 29/17 A2995 RMK A01 T02910174  RH  052%=      5-min Rain = 0
KCES 142300Z 30007KT 29/18 A2996 RMK A01 T02910175  RH  052%=      5-min Rain = 0
KCES 142305Z 33006KT 29/18 A2997 RMK A01 T02920175  RH  052%=      5-min Rain = 0
KCES 142310Z 31005KT 29/18 A2997 RMK A01 T02920175  RH  052%=      5-min Rain = 0
KCES 142315Z 26004KT 29/17 A2997 RMK A01 T02940173  RH  050%=      5-min Rain = 0
KCES 142320Z 22006KT 30/17 A2996 RMK A01 T02980172  RH  049%=      5-min Rain = 0
KCES 142325Z 23007KT 30/17 A2996 RMK A01 T03030166  RH  046%=      5-min Rain = 0
KCES 142330Z 23006KT 31/17 A2995 RMK A01 T03050172  RH  047%=      5-min Rain = 0
KCES 142335Z 23009KT 30/17 A2994 RMK A01 T03030169  RH  047%=      5-min Rain = 0
KCES 142340Z 20014G20KT 31/16 A2992 RMK A01 T03110158  RH  042%=      5-min Rain = 0
KCES 142345Z 19012KT 32/15 A2991 RMK A01 T03210149  RH  037%=      5-min Rain = 0
KCES 142350Z 20009G14KT 33/13 A2992 RMK A01 T03270131  RH  032%=      5-min Rain = 0
KCES 142355Z 20006KT 33/13 A2992 RMK A01 T03290130  RH  031%=      5-min Rain = 0
KCES 150000Z 08007KT 33/14 A2992 RMK A01 T03260142  RH  034%=      5-min Rain = 0
KCES 150005Z 09010KT 32/15 A2992 RMK A01 T03210149  RH  037%=      5-min Rain = 0
KCES 150010Z 12008G14KT 33/15 A2992 RMK A01 T03250146  RH  036%=      5-min Rain = 0
KCES 150015Z 15009KT 33/14 A2992 RMK A01 T03290142  RH  034%=      5-min Rain = 0
KCES 150020Z 15009KT 33/15 A2991 RMK A01 T03260149  RH  036%=      5-min Rain = 0
KCES 150025Z 16007KT 33/15 A2991 RMK A01 T03250150  RH  036%=      5-min Rain = 0
KCES 150030Z 18006KT 32/15 A2992 RMK A01 T03230151  RH  037%=      5-min Rain = 0
KCES 150035Z 20008KT 32/15 A2992 RMK A01 T03190151  RH  038%=      5-min Rain = 0
KCES 150040Z 21008KT 32/15 A2992 RMK A01 T03160148  RH  038%=      5-min Rain = 0
KCES 150045Z 17006KT 31/14 A2992 RMK A01 T03130144  RH  037%=      5-min Rain = 0
KCES 150050Z 13006KT 31/14 A2993 RMK A01 T03100139  RH  037%=      5-min Rain = 0
KCES 150055Z 11007KT 31/13 A2994 RMK A01 T03100134  RH  036%=      5-min Rain = 0
KCES 150100Z 10007KT 31/14 A2995 RMK A01 T03110136  RH  036%=      5-min Rain = 0
KCES 150105Z 08006KT 31/15 A2995 RMK A01 T03120145  RH  038%=      5-min Rain = 0
KCES 150110Z 08006KT 31/15 A2995 RMK A01 T03100153  RH  041%=      5-min Rain = 0
KCES 150115Z 07006KT 31/16 A2995 RMK A01 T03080156  RH  042%=      5-min Rain = 0
KCES 150120Z 09006KT 31/16 A2995 RMK A01 T03060157  RH  042%=      5-min Rain = 0
KCES 150125Z 10006KT 31/16 A2995 RMK A01 T03050157  RH  043%=      5-min Rain = 0
KCES 150130Z 10006KT 30/16 A2995 RMK A01 T03010159  RH  044%=      5-min Rain = 0
KCES 150135Z 10005KT 30/16 A2995 RMK A01 T02970160  RH  046%=      5-min Rain = 0
KCES 150140Z 10005KT 29/16 A2995 RMK A01 T02890162  RH  048%=      5-min Rain = 0
KCES 150145Z 11005KT 28/16 A2995 RMK A01 T02830162  RH  050%=      5-min Rain = 0
KCES 150150Z 12006KT 28/16 A2995 RMK A01 T02770163  RH  052%=      5-min Rain = 0
KCES 150155Z 12007KT 28/16 A2995 RMK A01 T02750160  RH  052%=      5-min Rain = 0
KCES 150200Z 12007KT 28/15 A2994 RMK A01 T02770153  RH  049%=      5-min Rain = 0
KCES 150205Z 13008KT 27/15 A2994 RMK A01 T02740154  RH  050%=      5-min Rain = 0
KCES 150210Z 15008KT 28/15 A2995 RMK A01 T02760151  RH  049%=      5-min Rain = 0
KCES 150215Z 17005KT 27/15 A2995 RMK A01 T02700154  RH  051%=      5-min Rain = 0
KCES 150220Z 17008KT 26/15 A2996 RMK A01 T02580145  RH  052%=      5-min Rain = 0
KCES 150225Z 17009KT 26/12 A2996 RMK A01 T02640123  RH  043%=      5-min Rain = 0
KCES 150230Z 18008KT 28/11 A2997 RMK A01 T02780108  RH  036%=      5-min Rain = 0
KCES 150235Z 17007KT 28/10 A2997 RMK A01 T02810104  RH  034%=      5-min Rain = 0
KCES 150240Z 18006KT 28/10 A2998 RMK A01 T02790103  RH  034%=      5-min Rain = 0
KCES 150245Z 18005KT 27/11 A2998 RMK A01 T02740105  RH  036%=      5-min Rain = 0
KCES 150250Z 18005KT 27/11 A2998 RMK A01 T02700106  RH  037%=      5-min Rain = 0
KCES 150255Z 18004KT 27/11 A2999 RMK A01 T02670105  RH  038%=      5-min Rain = 0
KCES 150300Z 18003KT 27/11 A2999 RMK A01 T02670107  RH  038%=      5-min Rain = 0
KCES 150305Z 21002KT 26/12 A2999 RMK A01 T02620117  RH  042%=      5-min Rain = 0
KCES 150310Z 21003KT 26/12 A30 RMK A01 T02570123  RH  045%=      5-min Rain = 0
KCES 150315Z 16003KT 26/12 A30 RMK A01 T02590115  RH  042%=      5-min Rain = 0
KCES 150320Z 18003KT 26/12 A3001 RMK A01 T02630119  RH  042%=      5-min Rain = 0
KCES 150325Z 20003KT 26/13 A3001 RMK A01 T02610129  RH  046%=      5-min Rain = 0
KCES 150330Z 23004KT 26/13 A3002 RMK A01 T02550132  RH  048%=      5-min Rain = 0
KCES 150335Z 21004KT 26/13 A3002 RMK A01 T02550125  RH  046%=      5-min Rain = 0
KCES 150340Z 21005KT 26/12 A3002 RMK A01 T02570122  RH  045%=      5-min Rain = 0
KCES 150345Z 22008KT 27/11 A3002 RMK A01 T02650110  RH  039%=      5-min Rain = 0
KCES 150350Z 22007KT 28/10 A3002 RMK A01 T02770099  RH  034%=      5-min Rain = 0
KCES 150355Z 22007KT 28/10 A3002 RMK A01 T02830098  RH  033%=      5-min Rain = 0
KCES 150400Z 21007KT 28/10 A3001 RMK A01 T02800100  RH  034%=      5-min Rain = 0
KCES 150405Z 21006KT 28/10 A3001 RMK A01 T02760102  RH  035%=      5-min Rain = 0
KCES 150410Z 23005KT 27/11 A3001 RMK A01 T02720105  RH  036%=      5-min Rain = 0
KCES 150415Z 29003KT 27/11 A3002 RMK A01 T02670108  RH  038%=      5-min Rain = 0
KCES 150420Z 30005KT 26/11 A3003 RMK A01 T02620108  RH  039%=      5-min Rain = 0
KCES 150425Z 29007KT 26/11 A3003 RMK A01 T02600110  RH  040%=      5-min Rain = 0
KCES 150430Z 30008KT 26/11 A3003 RMK A01 T02630110  RH  040%=      5-min Rain = 0
KCES 150435Z 31007KT 27/11 A3004 RMK A01 T02690109  RH  038%=      5-min Rain = 0
KCES 150440Z 32011KT 28/11 A3004 RMK A01 T02750105  RH  036%=      5-min Rain = 0
KCES 150445Z 33015G20KT 28/11 A3005 RMK A01 T02760110  RH  037%=      5-min Rain = 0
KCES 150450Z 35019G34KT 28/12 A3005 RMK A01 T02790124  RH  040%=      5-min Rain = 0
KCES 150455Z 34020G38KT 30/12 A3006 RMK A01 T02970119  RH  035%=      5-min Rain = 0

Page generated in 0.0092 seconds.